Putnam County Rgnl Information

FAA: GPC - ICAO: KGPC

Putnam County Rgnl (Airport) Location

State Indiana
County Putnam
City Greencastle
Putnam County Rgnl (Airport) is 3 miles southeast of Greencastle, IN.
Latitude 39-38-00.7000N
Longitude 086-48-49.7000W
Elevation 842ft

Putnam County Rgnl METARs

METAR KGPC 190135Z AUTO 19015KT 10SM CLR 05/M01 A2987 RMK AO2 T00481014
Altimeter 29.87"
Temperature 4.8°C (40.6°F)
Wind 190° at 15KT
Clouds Skies are clear.
Visibility 10.0mi
Time observed: 2022-01-19T01:35:00Z

Putnam County Rgnl (Airport) Details

Status Operational
Activation January 1947
Ownership Public
Usage Public
Chart ST LOUIS
ATC on-site No
Beacon schedule sunset-sunrise
Beacon color clear green

Putnam County Rgnl (Airport) Contacts

Owner PUTNAM CO AIRPORT AUTHORITY
Owner address 100 BALLARD LANE, GREENCASTLE, IN 46135
Owner phone 765-653-1763
Manager N/A
Manager address N/A, N/A
Manager phone N/A

Putnam County Rgnl Radio Frequencies

Putnam County Rgnl (Airport) Radio Frequencies

UNICOM 122.8
Common traffic advisory frequency (CTAF) 122.8